Time;durP1;ratioP1;P1;durP2;ratioP2;P2;SDS_P1;SDS_P2;PMS_P1;PMS_P2;Temp;Humidity;BMP_temperature;BMP_pressure;BME280_temperature;BME280_humidity;BME280_pressure;Samples;Min_cycle;Max_cycle;Signal;HPM_P1;HPM_P2
2023/07/11 00:30:00;;;;;;;9.82;8.93;;;;;;;14.23;100.00;95704.97;4644829;30;20130;-81
2023/07/11 00:32:26;;;;;;;9.52;8.48;;;;;;;14.37;100.00;95700.81;4708925;29;20923;-80
2023/07/11 00:34:52;;;;;;;8.52;7.82;;;;;;;14.29;100.00;95689.63;4902479;29;20048;-78
2023/07/11 00:37:17;;;;;;;9.40;8.57;;;;;;;14.21;100.00;95667.84;4904242;29;20135;-80
2023/07/11 00:39:43;;;;;;;9.85;9.10;;;;;;;14.20;100.00;95681.03;4900614;29;20462;-79
2023/07/11 00:42:09;;;;;;;9.65;8.68;;;;;;;14.17;100.00;95684.81;4900659;29;20036;-79
2023/07/11 00:44:53;;;;;;;9.77;8.88;;;;;;;14.17;100.00;95681.41;4898965;29;20047;-82
2023/07/11 00:47:22;;;;;;;8.43;7.82;;;;;;;14.21;100.00;95688.69;4904152;29;20052;-80
2023/07/11 00:49:48;;;;;;;9.45;8.63;;;;;;;14.22;100.00;95682.50;4911377;29;20052;-80
2023/07/11 00:52:15;;;;;;;8.90;8.23;;;;;;;14.34;100.00;95680.31;4925431;29;20042;-79
2023/07/11 00:54:43;;;;;;;9.75;8.77;;;;;;;14.35;100.00;95658.50;4963181;28;20074;-79
2023/07/11 00:57:09;;;;;;;9.68;8.77;;;;;;;14.22;100.00;95663.47;4998468;28;20506;-79
2023/07/11 00:59:34;;;;;;;10.25;9.07;;;;;;;14.36;100.00;95680.94;5040285;28;20028;-79
2023/07/11 01:02:06;;;;;;;8.88;8.20;;;;;;;14.25;100.00;95676.91;5027324;28;20060;-80
2023/07/11 01:04:32;;;;;;;9.18;8.35;;;;;;;14.23;100.00;95675.47;5044477;28;20028;-80
2023/07/11 01:06:57;;;;;;;8.75;8.05;;;;;;;14.37;100.00;95682.56;5043841;28;20497;-80
2023/07/11 01:09:23;;;;;;;10.85;9.95;;;;;;;14.10;100.00;95694.31;5062259;28;20032;-80
2023/07/11 01:11:58;;;;;;;11.80;10.75;;;;;;;13.97;100.00;95724.50;5062214;28;20033;-78
2023/07/11 01:14:24;;;;;;;9.50;8.52;;;;;;;14.14;100.00;95746.88;5027311;28;20023;-81
2023/07/11 01:16:50;;;;;;;9.05;8.45;;;;;;;14.14;100.00;95731.25;5044421;28;20036;-83
2023/07/11 01:19:15;;;;;;;9.00;8.35;;;;;;;14.22;100.00;95708.53;5040328;28;20047;-80
2023/07/11 01:21:41;;;;;;;8.73;8.13;;;;;;;14.12;100.00;95688.94;5051449;28;20043;-84
2023/07/11 01:24:06;;;;;;;9.57;8.88;;;;;;;14.24;100.00;95697.97;5043840;28;20029;-81
2023/07/11 01:26:32;;;;;;;9.18;8.52;;;;;;;14.21;100.00;95717.38;5026783;28;20028;-84
2023/07/11 01:28:58;;;;;;;9.93;9.13;;;;;;;14.11;100.00;95719.38;5040727;28;20033;-85
2023/07/11 01:31:24;;;;;;;9.32;8.63;;;;;;;14.03;100.00;95745.47;5043221;28;20025;-86
2023/07/11 01:33:49;;;;;;;10.43;9.70;;;;;;;13.81;100.00;95761.88;5044402;28;20028;-86
2023/07/11 01:36:15;;;;;;;11.60;10.55;;;;;;;13.83;100.00;95811.19;5026331;28;20139;-83
2023/07/11 01:38:41;;;;;;;11.02;10.10;;;;;;;13.98;100.00;95849.38;5043869;28;20032;-82
2023/07/11 01:41:06;;;;;;;11.10;10.25;;;;;;;14.04;100.00;95837.47;5043037;28;20485;-83
2023/07/11 01:43:32;;;;;;;9.93;9.13;;;;;;;14.02;100.00;95823.81;5042511;28;20032;-83
2023/07/11 01:45:58;;;;;;;10.48;9.70;;;;;;;13.91;100.00;95819.78;5043338;28;20052;-82
2023/07/11 01:48:23;;;;;;;9.48;8.77;;;;;;;14.12;100.00;95822.63;5043189;28;20036;-83
2023/07/11 01:50:48;;;;;;;9.52;8.77;;;;;;;14.24;100.00;95795.19;5061756;28;20035;-82
2023/07/11 01:53:14;;;;;;;9.10;8.40;;;;;;;14.06;100.00;95771.16;5060857;28;20165;-84
2023/07/11 01:55:39;;;;;;;10.77;9.85;;;;;;;14.02;100.00;95761.28;5043296;28;20039;-81
2023/07/11 01:58:05;;;;;;;9.88;9.02;;;;;;;14.08;100.00;95774.44;5043105;28;20033;-84
2023/07/11 02:00:30;;;;;;;9.63;8.85;;;;;;;14.05;100.00;95779.19;5041765;28;20029;-81
2023/07/11 02:02:56;;;;;;;9.38;8.77;;;;;;;14.11;100.00;95768.88;5043218;28;20035;-81
2023/07/11 02:05:21;;;;;;;10.90;9.93;;;;;;;14.11;100.00;95765.47;5025836;28;20794;-81
2023/07/11 02:07:47;;;;;;;9.75;9.00;;;;;;;14.15;100.00;95780.59;5043223;28;20397;-81
2023/07/11 02:10:13;;;;;;;12.00;11.10;;;;;;;14.03;100.00;95779.34;5033596;28;20021;-82
2023/07/11 02:12:38;;;;;;;11.00;10.20;;;;;;;13.98;100.00;95784.25;5045417;28;20115;-81
2023/07/11 02:15:04;;;;;;;10.60;9.70;;;;;;;14.02;100.00;95788.16;5042576;28;20028;-83
2023/07/11 02:17:29;;;;;;;11.88;10.98;;;;;;;14.00;100.00;95803.13;5039655;28;20036;-83
2023/07/11 02:19:55;;;;;;;10.25;9.25;;;;;;;14.01;100.00;95802.16;5042808;28;20039;-81
2023/07/11 02:22:22;;;;;;;10.77;10.07;;;;;;;14.11;100.00;95804.53;5025661;28;20024;-82
2023/07/11 02:24:47;;;;;;;10.88;10.07;;;;;;;14.17;100.00;95814.28;5042562;28;20485;-81
2023/07/11 02:27:13;;;;;;;11.68;10.73;;;;;;;14.09;100.00;95796.09;5066739;28;20048;-82
2023/07/11 02:29:38;;;;;;;11.15;10.35;;;;;;;14.01;100.00;95804.75;5081127;28;21045;-83
2023/07/11 02:32:04;;;;;;;10.55;9.80;;;;;;;14.12;100.00;95798.34;5069650;28;20548;-82
2023/07/11 02:34:29;;;;;;;10.65;9.85;;;;;;;14.01;100.00;95786.53;5074595;28;20024;-81
2023/07/11 02:36:55;;;;;;;11.25;10.23;;;;;;;13.87;100.00;95787.22;5045928;28;20016;-85
2023/07/11 02:39:21;;;;;;;10.70;9.80;;;;;;;13.87;100.00;95812.47;5062179;28;20032;-84
2023/07/11 02:41:46;;;;;;;11.05;10.23;;;;;;;13.70;100.00;95827.34;5062500;28;20088;-84
2023/07/11 02:44:12;;;;;;;11.35;10.25;;;;;;;13.69;100.00;95846.53;5062289;28;20536;-83
2023/07/11 02:46:37;;;;;;;10.75;9.85;;;;;;;13.77;100.00;95863.94;5080310;28;20024;-84
2023/07/11 02:49:03;;;;;;;14.25;11.27;;;;;;;13.68;100.00;95990.69;5045695;28;20035;-85
2023/07/11 02:51:28;;;;;;;12.02;10.82;;;;;;;13.69;100.00;95994.94;5062167;28;20031;-84
2023/07/11 02:53:54;;;;;;;11.52;10.40;;;;;;;13.74;100.00;96013.50;5061656;28;20204;-83
2023/07/11 02:56:20;;;;;;;11.25;10.23;;;;;;;13.79;100.00;96008.59;5062338;28;20374;-84
2023/07/11 02:58:46;;;;;;;11.68;10.73;;;;;;;13.85;100.00;95989.72;5045314;28;20022;-83
2023/07/11 03:01:12;;;;;;;11.45;10.35;;;;;;;13.99;100.00;95967.41;5061862;28;20028;-82
2023/07/11 03:03:38;;;;;;;10.48;9.43;;;;;;;13.89;100.00;95954.56;5045357;28;20031;-82
2023/07/11 03:06:03;;;;;;;10.48;9.68;;;;;;;13.84;100.00;95930.78;5045378;28;20073;-83
2023/07/11 03:08:29;;;;;;;10.48;9.68;;;;;;;13.93;100.00;95936.81;5062058;28;20466;-83
2023/07/11 03:10:59;;;;;;;10.32;9.52;;;;;;;14.05;100.00;95935.47;5080254;28;20034;-82
2023/07/11 03:13:25;;;;;;;10.10;9.35;;;;;;;13.98;100.00;95919.69;5043986;28;20027;-83
2023/07/11 03:15:50;;;;;;;10.35;9.55;;;;;;;14.05;100.00;95914.63;5042026;28;20059;-83
2023/07/11 03:18:16;;;;;;;10.60;10.00;;;;;;;14.10;100.00;95909.72;5042267;28;20059;-82
2023/07/11 03:20:42;;;;;;;11.55;10.45;;;;;;;14.05;100.00;95897.22;5042200;28;20037;-81
2023/07/11 03:23:10;;;;;;;10.35;9.65;;;;;;;14.15;100.00;95912.66;5041121;28;20059;-82
2023/07/11 03:25:36;;;;;;;10.93;10.13;;;;;;;14.20;100.00;95911.16;5045499;28;20021;-81
2023/07/11 03:28:01;;;;;;;10.82;9.82;;;;;;;14.23;100.00;95887.34;5058223;28;20045;-82
2023/07/11 03:30:26;;;;;;;11.40;10.32;;;;;;;14.34;100.00;95901.03;5042010;28;20036;-81
2023/07/11 03:32:52;;;;;;;10.57;9.77;;;;;;;14.39;100.00;95888.28;5025206;28;20575;-81
2023/07/11 03:35:18;;;;;;;15.65;10.35;;;;;;;14.46;100.00;95871.00;5059856;28;20037;-80
2023/07/11 03:37:43;;;;;;;9.98;9.00;;;;;;;14.99;100.00;95831.84;5040712;28;20020;-79
2023/07/11 03:40:09;;;;;;;9.05;8.32;;;;;;;15.69;100.00;95688.69;5041536;28;20082;-82
2023/07/11 03:42:34;;;;;;;8.15;7.53;;;;;;;16.26;100.00;95528.38;5024765;28;20024;-80
2023/07/11 03:45:00;;;;;;;7.57;6.72;;;;;;;16.82;100.00;95430.47;5041584;28;20029;-80
2023/07/11 03:47:25;;;;;;;7.38;6.70;;;;;;;17.06;100.00;95368.94;5059860;28;20028;-80
2023/07/11 03:49:51;;;;;;;7.13;6.00;;;;;;;17.58;100.00;95331.50;5024031;28;20501;-80
2023/07/11 03:52:16;;;;;;;7.53;6.05;;;;;;;17.95;100.00;95297.75;5021165;28;20112;-79
2023/07/11 03:54:42;;;;;;;11.35;6.55;;;;;;;18.29;100.00;95264.09;5051391;28;20029;-80
2023/07/11 03:57:07;;;;;;;6.55;5.60;;;;;;;18.49;100.00;95266.59;5031761;28;20084;-80
2023/07/11 03:59:33;;;;;;;5.90;5.50;;;;;;;18.86;100.00;95221.13;5059498;28;20459;-81
2023/07/11 04:01:58;;;;;;;27.70;24.77;;;;;;;18.73;100.00;95207.31;5041261;28;20024;-81
2023/07/11 04:04:24;;;;;;;24.40;21.88;;;;;;;19.16;100.00;95200.25;5041470;28;20119;-80
2023/07/11 04:06:49;;;;;;;21.90;19.92;;;;;;;19.67;100.00;95196.50;5041590;28;20034;-80
2023/07/11 04:09:15;;;;;;;17.55;16.05;;;;;;;19.54;100.00;95201.91;5045052;28;20465;-80
2023/07/11 04:11:40;;;;;;;13.50;12.40;;;;;;;19.83;100.00;95188.81;5062772;28;20016;-80
2023/07/11 04:14:10;;;;;;;9.57;8.32;;;;;;;20.38;100.00;95184.25;5028917;28;20020;-80
2023/07/11 04:16:36;;;;;;;10.60;9.48;;;;;;;20.30;100.00;95189.81;5051668;28;20056;-80
2023/07/11 04:19:02;;;;;;;9.27;8.40;;;;;;;20.48;100.00;95197.63;5057316;28;20183;-80
2023/07/11 04:21:27;;;;;;;8.00;7.00;;;;;;;20.54;100.00;95195.13;5040942;28;20029;-81
2023/07/11 04:23:53;;;;;;;5.85;5.30;;;;;;;20.88;100.00;95202.25;5038267;28;20578;-81
2023/07/11 04:26:18;;;;;;;8.02;6.05;;;;;;;21.25;100.00;95193.16;5044697;28;20028;-80
2023/07/11 04:28:44;;;;;;;5.40;4.90;;;;;;;21.53;100.00;95195.06;5062530;28;20055;-81
2023/07/11 04:31:09;;;;;;;5.75;4.47;;;;;;;21.48;100.00;95177.28;5063203;28;20024;-81
2023/07/11 04:33:34;;;;;;;4.68;4.28;;;;;;;21.17;100.00;95176.88;5044521;28;20720;-82
2023/07/11 04:36:11;;;;;;;5.22;4.32;;;;;;;21.63;100.00;95176.81;5061931;28;20045;-82
2023/07/11 04:38:37;;;;;;;5.43;4.93;;;;;;;22.52;100.00;95170.81;5044305;28;20032;-81
2023/07/11 04:41:04;;;;;;;5.20;4.72;;;;;;;23.08;100.00;95174.34;5027399;28;20453;-80
2023/07/11 04:43:30;;;;;;;5.18;4.57;;;;;;;23.48;100.00;95179.41;5046327;28;20457;-81
2023/07/11 04:45:57;;;;;;;4.72;4.43;;;;;;;23.71;100.00;95184.47;5033847;28;20033;-81
2023/07/11 04:48:23;;;;;;;5.43;5.03;;;;;;;23.90;100.00;95187.59;5043849;28;20034;-80
2023/07/11 04:50:48;;;;;;;5.35;4.80;;;;;;;24.25;100.00;95185.34;5061318;28;20021;-80
2023/07/11 04:53:13;;;;;;;4.82;4.45;;;;;;;24.21;100.00;95178.97;5044602;28;20025;-80
2023/07/11 04:55:39;;;;;;;5.40;4.90;;;;;;;24.63;97.90;95177.22;5044245;28;20476;-80
2023/07/11 04:58:04;;;;;;;6.05;4.70;;;;;;;24.47;100.00;95190.59;5042906;28;20025;-81
2023/07/11 05:00:30;;;;;;;6.25;5.68;;;;;;;24.77;100.00;95182.13;5056515;28;20478;-81
2023/07/11 05:02:55;;;;;;;4.97;4.60;;;;;;;24.82;100.00;95190.94;5023167;28;20036;-79
2023/07/11 05:05:22;;;;;;;5.65;5.15;;;;;;;24.98;100.00;95192.66;5061598;28;20032;-79
2023/07/11 05:07:47;;;;;;;5.25;4.90;;;;;;;25.10;98.88;95192.47;5043797;28;20082;-79
2023/07/11 05:10:13;;;;;;;4.25;3.95;;;;;;;25.41;98.44;95204.88;5062810;28;20670;-80
2023/07/11 05:12:38;;;;;;;4.70;4.30;;;;;;;26.00;95.90;95196.69;5027345;28;20145;-80
2023/07/11 05:15:04;;;;;;;5.50;4.38;;;;;;;26.03;93.95;95189.00;5027218;28;20013;-79
2023/07/11 05:17:29;;;;;;;4.35;3.95;;;;;;;26.32;87.98;95193.88;5039988;28;20059;-80
2023/07/11 05:19:55;;;;;;;4.35;4.03;;;;;;;26.93;81.68;95189.44;5061095;28;20036;-82
2023/07/11 05:22:20;;;;;;;5.65;4.45;;;;;;;27.39;83.24;95188.28;5016064;28;20517;-80
2023/07/11 05:24:47;;;;;;;4.45;4.15;;;;;;;27.46;82.15;95191.50;5037681;28;20032;-80
2023/07/11 05:27:12;;;;;;;5.85;4.40;;;;;;;27.57;80.16;95193.09;5041040;28;22473;-79
2023/07/11 05:29:38;;;;;;;5.10;4.70;;;;;;;27.75;78.78;95194.34;5059509;28;20060;-78
2023/07/11 05:32:04;;;;;;;5.18;4.53;;;;;;;28.47;74.99;95198.31;5071094;28;20059;-80
2023/07/11 05:34:29;;;;;;;5.55;5.00;;;;;;;28.27;77.88;95193.88;5059242;28;20484;-80
2023/07/11 05:36:54;;;;;;;4.90;4.50;;;;;;;28.68;75.00;95183.78;5069489;28;20034;-81
2023/07/11 05:39:20;;;;;;;5.25;4.10;;;;;;;29.57;72.94;95201.94;5057080;28;20477;-80
2023/07/11 05:41:51;;;;;;;4.93;4.50;;;;;;;30.23;69.48;95199.31;5040660;28;20062;-81
2023/07/11 05:44:17;;;;;;;5.00;4.70;;;;;;;30.80;65.49;95195.59;5076428;28;20032;-79
2023/07/11 05:46:43;;;;;;;4.57;4.35;;;;;;;30.83;66.70;95186.97;5035407;28;20028;-80
2023/07/11 05:49:08;;;;;;;4.13;3.88;;;;;;;31.45;59.82;95197.47;5075759;28;20032;-79
2023/07/11 05:51:34;;;;;;;5.90;4.55;;;;;;;31.38;60.14;95187.16;5071310;28;20397;-78
2023/07/11 05:54:00;;;;;;;7.07;4.28;;;;;;;32.44;58.40;95193.13;5062798;28;20146;-80
2023/07/11 05:56:26;;;;;;;4.93;4.57;;;;;;;31.97;59.38;95189.00;5062669;28;20032;-78
2023/07/11 05:58:52;;;;;;;6.23;4.40;;;;;;;32.71;56.89;95192.28;5062380;28;20496;-78
2023/07/11 06:01:27;;;;;;;4.83;4.43;;;;;;;32.24;54.98;95201.59;5061209;28;20032;-78
2023/07/11 06:04:10;;;;;;;4.95;4.55;;;;;;;32.76;54.00;95201.00;5062212;28;20506;-78
2023/07/11 06:06:41;;;;;;;4.70;4.30;;;;;;;33.08;54.26;95199.16;5062883;28;20036;-77
2023/07/11 06:09:08;;;;;;;4.50;4.10;;;;;;;33.68;53.48;95194.19;5078278;28;20020;-78
2023/07/11 06:11:33;;;;;;;4.93;4.63;;;;;;;33.50;49.42;95181.72;5042575;28;20032;-79
2023/07/11 06:13:59;;;;;;;11.43;5.28;;;;;;;34.14;49.03;95188.31;5077505;28;20094;-78
2023/07/11 06:16:24;;;;;;;4.93;4.50;;;;;;;33.99;50.90;95191.44;5046154;28;20027;-78
2023/07/11 06:18:52;;;;;;;4.70;4.30;;;;;;;33.80;50.13;95184.44;5062955;28;20028;-80
2023/07/11 06:21:17;;;;;;;5.28;4.95;;;;;;;34.25;48.45;95178.88;5080260;28;20024;-79
2023/07/11 06:23:44;;;;;;;5.45;5.05;;;;;;;34.14;49.65;95186.44;5042709;28;20390;-80
2023/07/11 06:26:10;;;;;;;5.80;5.28;;;;;;;33.62;48.49;95182.00;5061813;28;20114;-79
2023/07/11 06:28:36;;;;;;;5.85;5.15;;;;;;;34.13;47.13;95192.16;5062217;28;20119;-79
2023/07/11 06:31:02;;;;;;;5.93;5.47;;;;;;;33.28;49.58;95201.38;5059026;28;20063;-79
2023/07/11 06:33:29;;;;;;;9.50;5.38;;;;;;;31.69;55.34;95190.88;5058772;28;20478;-79
2023/07/11 06:35:55;;;;;;;5.70;5.22;;;;;;;29.85;64.59;95196.88;5042821;28;20051;-80
2023/07/11 06:38:20;;;;;;;5.57;5.07;;;;;;;29.51;64.13;95192.41;5025541;28;20493;-79
2023/07/11 06:40:49;;;;;;;5.00;4.60;;;;;;;29.87;63.23;95194.69;5026000;28;20039;-78
2023/07/11 10:46:58;;;;;;;5.15;4.65;;;;;;;31.21;67.79;95071.78;4987770;28;20077;-81
2023/07/11 10:49:28;;;;;;;7.75;4.95;;;;;;;31.24;64.08;95071.97;5085688;27;20161;-81
2023/07/11 10:52:27;;;;;;;8.75;4.90;;;;;;;31.13;66.81;95072.47;5104371;27;20045;-78
2023/07/11 10:55:01;;;;;;;6.57;4.40;;;;;;;31.13;65.31;95062.56;5070796;27;20100;-79
2023/07/11 10:57:40;;;;;;;7.00;4.50;;;;;;;31.15;60.50;95064.91;5102422;27;20188;-77
2023/07/11 11:00:16;;;;;;;5.85;5.35;;;;;;;30.99;62.49;95060.94;5120908;27;20561;-80
2023/07/11 11:02:59;;;;;;;5.60;5.15;;;;;;;31.19;60.39;95056.00;5120893;27;20065;-78
2023/07/11 11:05:48;;;;;;;5.43;4.50;;;;;;;31.18;62.96;95056.28;5110090;27;20036;-82
2023/07/11 11:08:38;;;;;;;8.20;4.95;;;;;;;31.13;59.47;95051.84;5114322;27;20054;-79
2023/07/11 11:11:16;;;;;;;6.50;4.90;;;;;;;31.19;60.40;95050.66;5120281;27;20031;-78
2023/07/11 11:14:09;;;;;;;6.05;4.63;;;;;;;31.56;63.69;95049.69;5106979;28;20055;-83
2023/07/11 11:17:02;;;;;;;5.03;4.63;;;;;;;31.43;62.19;95053.13;5104598;28;20399;-80
2023/07/11 11:19:39;;;;;;;5.60;4.82;;;;;;;31.33;63.78;95045.28;5087385;28;20040;-78
2023/07/11 11:22:12;;;;;;;5.53;4.68;;;;;;;31.23;62.13;95037.47;5115976;28;20027;-80
2023/07/11 11:24:44;;;;;;;5.50;4.75;;;;;;;31.50;61.48;95047.41;5089563;28;20081;-83
2023/07/11 11:27:12;;;;;;;4.88;4.40;;;;;;;31.04;57.46;95037.56;5112305;27;20508;-81
2023/07/11 11:30:01;;;;;;;;;;;;;;;31.46;67.05;95043.69;5108255;27;20085;-77
2023/07/11 11:32:41;;;;;;;5.88;5.03;;;;;;;31.56;65.86;95036.28;5103213;28;19916;-79
2023/07/11 11:35:19;;;;;;;8.98;4.85;;;;;;;31.21;64.13;95029.72;5102380;28;20031;-81
2023/07/11 11:38:05;;;;;;;;;;;;;;;31.12;62.47;95038.75;5111040;28;20027;-81
2023/07/11 11:40:33;;;;;;;5.28;4.78;;;;;;;31.39;65.48;95025.34;5089745;28;19928;-80
2023/07/11 11:43:04;;;;;;;5.65;4.82;;;;;;;31.29;63.48;95030.91;5098377;28;20752;-80
2023/07/11 11:45:30;;;;;;;5.43;4.88;;;;;;;31.41;64.67;95028.50;5080940;28;20020;-79
2023/07/11 11:47:59;;;;;;;5.80;5.30;;;;;;;31.14;63.48;95026.66;5078036;28;20035;-77
2023/07/11 11:50:25;;;;;;;5.57;5.07;;;;;;;31.45;65.53;95021.47;5083525;28;20495;-78
2023/07/11 11:53:33;;;;;;;5.68;5.15;;;;;;;31.45;67.01;95021.47;5082587;28;20036;-78
2023/07/11 11:56:05;;;;;;;5.50;4.97;;;;;;;31.50;65.95;95013.34;5077239;28;20115;-79
2023/07/11 11:58:32;;;;;;;6.05;5.53;;;;;;;31.58;64.46;95006.50;5087632;28;20559;-79
2023/07/11 12:00:58;;;;;;;6.93;5.35;;;;;;;31.46;63.96;95011.56;5101495;28;20454;-78
2023/07/11 12:03:39;;;;;;;6.25;4.82;;;;;;;31.43;58.75;95001.44;5081957;28;20024;-79
2023/07/11 12:06:28;;;;;;;4.93;4.53;;;;;;;31.58;59.01;95001.13;5082914;28;20063;-80
2023/07/11 12:09:16;;;;;;;5.88;4.70;;;;;;;31.47;59.06;94997.84;5068225;28;20063;-81
2023/07/11 12:12:03;;;;;;;5.80;5.22;;;;;;;31.57;59.98;95005.69;5090793;28;20503;-81
2023/07/11 12:31:46;;;;;;;5.88;5.22;;;;;;;31.34;61.26;94987.94;5043852;28;20045;-78
2023/07/11 12:34:12;;;;;;;8.43;4.82;;;;;;;31.26;60.04;94985.97;5044100;28;20448;-78
2023/07/11 12:36:46;;;;;;;8.88;5.55;;;;;;;31.45;61.04;94983.16;5070056;28;20032;-79
2023/07/11 12:39:27;;;;;;;5.15;4.72;;;;;;;31.42;61.39;94976.53;5082952;28;20707;-78
2023/07/11 12:42:13;;;;;;;6.03;5.38;;;;;;;31.24;59.12;94982.81;5100141;28;20561;-81
2023/07/11 12:44:39;;;;;;;5.18;4.70;;;;;;;31.24;63.46;94982.81;5089820;28;20024;-78
2023/07/11 12:47:11;;;;;;;5.50;4.85;;;;;;;30.94;59.12;94975.38;5065164;28;20026;-82
2023/07/11 12:49:40;;;;;;;8.40;5.03;;;;;;;30.91;61.10;94970.59;5081008;28;20016;-81
2023/07/11 12:52:09;;;;;;;5.65;4.82;;;;;;;30.98;60.58;94979.06;5065432;28;20031;-77
2023/07/11 12:54:35;;;;;;;9.73;4.70;;;;;;;30.95;62.07;94959.06;5092147;27;20067;-79
2023/07/11 12:57:01;;;;;;;5.20;4.70;;;;;;;31.01;61.01;94962.41;5087972;28;20173;-77
2023/07/11 12:59:30;;;;;;;5.45;5.05;;;;;;;31.16;61.83;94962.09;5093043;28;20047;-78
2023/07/11 13:01:58;;;;;;;5.28;4.65;;;;;;;31.07;60.01;94963.88;5065563;28;20024;-79
2023/07/11 13:04:34;;;;;;;5.17;4.77;;;;;;;30.92;60.40;94964.16;5103623;28;20482;-79
2023/07/11 13:07:00;;;;;;;8.32;4.75;;;;;;;30.88;63.46;94963.16;5087014;28;20031;-78
2023/07/11 13:09:26;;;;;;;7.00;5.03;;;;;;;30.86;58.46;94955.44;5078443;28;20020;-79
2023/07/11 13:11:52;;;;;;;8.85;4.93;;;;;;;30.78;59.80;94959.59;5079879;28;20093;-80
2023/07/11 13:14:20;;;;;;;7.20;4.93;;;;;;;30.81;62.83;94960.88;5081651;28;20105;-80
2023/07/11 13:16:46;;;;;;;6.68;4.90;;;;;;;30.93;61.66;94955.81;5083169;28;20044;-79
2023/07/11 13:19:14;;;;;;;8.25;5.22;;;;;;;30.77;61.10;94957.22;5094282;28;20500;-77
2023/07/11 13:21:42;;;;;;;5.67;5.17;;;;;;;30.74;61.23;94955.13;5043384;28;20031;-79
2023/07/11 13:24:13;;;;;;;6.10;4.80;;;;;;;30.65;62.05;94946.22;5080750;28;20026;-78
2023/07/11 13:26:39;;;;;;;7.63;4.93;;;;;;;30.81;62.54;94944.84;5096000;28;20146;-82
2023/07/11 13:29:10;;;;;;;6.70;4.70;;;;;;;30.83;65.27;94939.97;5092113;28;20745;-78
2023/07/11 13:31:37;;;;;;;7.75;4.45;;;;;;;30.55;59.23;94939.19;5094722;28;20032;-79
2023/07/11 13:34:12;;;;;;;8.13;5.05;;;;;;;30.47;59.16;94937.16;5092988;28;20032;-80
2023/07/11 13:36:40;;;;;;;5.35;4.85;;;;;;;30.41;61.14;94949.06;5085505;28;20031;-80
2023/07/11 13:39:10;;;;;;;5.15;4.75;;;;;;;30.42;58.94;94945.31;5092341;28;20035;-79
2023/07/11 13:41:37;;;;;;;5.78;4.80;;;;;;;30.42;61.44;94942.63;5082264;28;20055;-80
2023/07/11 13:44:25;;;;;;;5.25;4.80;;;;;;;30.38;59.43;94936.25;5074155;28;20123;-78
2023/07/11 13:46:51;;;;;;;5.20;4.70;;;;;;;30.41;59.49;94941.03;5088575;28;20031;-80
2023/07/11 13:49:37;;;;;;;9.57;4.90;;;;;;;30.32;60.57;94940.91;5101182;28;20039;-81
2023/07/11 13:52:03;;;;;;;5.93;5.00;;;;;;;30.32;61.17;94929.41;5094773;28;20032;-78
2023/07/11 13:54:33;;;;;;;5.63;5.03;;;;;;;30.30;60.56;94943.09;5082922;28;20027;-79
2023/07/11 13:56:59;;;;;;;6.18;5.43;;;;;;;30.29;61.31;94938.81;5098207;28;20428;-82
2023/07/11 13:59:24;;;;;;;5.88;5.03;;;;;;;30.56;64.69;94935.41;5090423;28;20034;-81
2023/07/11 14:01:50;;;;;;;6.43;5.25;;;;;;;30.57;61.61;94954.91;5077755;28;20028;-81
2023/07/11 14:04:19;;;;;;;5.43;4.78;;;;;;;30.39;59.66;94945.88;5100475;28;20092;-81
2023/07/11 14:06:44;;;;;;;4.97;4.57;;;;;;;30.27;63.60;94943.66;5087554;28;20532;-82
2023/07/11 14:09:11;;;;;;;10.52;4.97;;;;;;;30.33;62.24;94944.38;5079904;28;20055;-81
2023/07/11 14:11:36;;;;;;;5.32;4.93;;;;;;;30.13;59.00;94942.84;5080884;28;20529;-83
2023/07/11 14:14:10;;;;;;;8.52;5.22;;;;;;;30.16;60.74;94944.91;5081771;28;20474;-86
2023/07/11 14:16:35;;;;;;;10.18;4.93;;;;;;;30.17;60.80;94943.03;5081332;28;20160;-77
2023/07/11 14:19:03;;;;;;;5.72;5.10;;;;;;;30.14;61.17;94939.09;5069457;28;20864;-78
2023/07/11 14:21:28;;;;;;;6.43;4.43;;;;;;;30.14;61.12;94940.97;5092642;28;20460;-80
2023/07/11 14:23:54;;;;;;;5.50;5.00;;;;;;;29.89;61.88;94933.38;5084479;28;20047;-82
2023/07/11 14:26:19;;;;;;;7.70;5.20;;;;;;;29.93;59.73;94945.03;5083746;28;20043;-80
2023/07/11 14:28:45;;;;;;;6.65;4.80;;;;;;;29.90;57.93;94929.59;5080174;28;20032;-79
2023/07/11 14:31:19;;;;;;;8.75;4.45;;;;;;;30.06;60.45;94944.28;5057675;28;20045;-82
2023/07/11 14:33:44;;;;;;;5.45;4.70;;;;;;;30.01;61.19;94944.38;5082059;28;20016;-79
2023/07/11 14:36:12;;;;;;;7.97;4.97;;;;;;;29.88;61.37;94942.47;5073249;28;20263;-79
2023/07/11 14:38:37;;;;;;;5.03;4.45;;;;;;;29.90;62.51;94932.25;5063386;28;20062;-82
2023/07/11 14:41:04;;;;;;;4.97;4.57;;;;;;;29.95;64.62;94938.34;5094245;28;20036;-83
2023/07/11 14:43:30;;;;;;;7.40;5.22;;;;;;;29.94;63.79;94939.41;5088385;28;20088;-79
2023/07/11 14:45:55;;;;;;;5.50;4.32;;;;;;;29.84;63.65;94933.44;5096199;28;20764;-77
2023/07/11 14:48:23;;;;;;;5.15;4.65;;;;;;;29.83;62.22;94932.63;5080439;28;20130;-81
2023/07/11 14:51:02;;;;;;;9.10;4.53;;;;;;;29.79;63.54;94931.63;5079266;28;20447;-84
2023/07/11 14:53:29;;;;;;;8.27;4.90;;;;;;;29.81;65.38;94940.13;5072601;28;20063;-83
2023/07/11 14:55:54;;;;;;;5.47;5.00;;;;;;;29.68;65.59;94935.53;5082876;28;20026;-82
2023/07/11 14:58:20;;;;;;;5.70;5.20;;;;;;;29.63;62.01;94925.72;5081326;28;20039;-83
2023/07/11 15:00:46;;;;;;;5.35;4.88;;;;;;;29.52;62.72;94928.81;5093147;28;20028;-82
2023/07/11 15:03:20;;;;;;;7.00;5.18;;;;;;;29.68;64.37;94933.66;5087147;28;20057;-84
2023/07/11 15:05:45;;;;;;;5.63;4.65;;;;;;;29.75;66.74;94926.06;5088433;28;20039;-81
2023/07/11 15:08:30;;;;;;;4.78;4.25;;;;;;;29.66;67.37;94933.16;5081377;28;20027;-80
2023/07/11 15:11:24;;;;;;;5.47;4.40;;;;;;;29.67;65.71;94926.72;5085664;28;20055;-80
2023/07/11 15:13:49;;;;;;;6.53;4.60;;;;;;;29.59;65.95;94927.38;5086800;28;20512;-84
2023/07/11 15:16:15;;;;;;;4.60;4.20;;;;;;;29.57;63.82;94936.78;5083443;28;20012;-84
2023/07/11 15:18:40;;;;;;;9.48;4.50;;;;;;;29.57;65.52;94929.53;5082144;28;20024;-83
2023/07/11 15:21:05;;;;;;;5.90;4.57;;;;;;;29.50;67.26;94945.16;5085838;28;20016;-81
2023/07/11 15:23:31;;;;;;;9.15;4.82;;;;;;;29.38;65.07;94938.66;5094536;28;20527;-79
2023/07/11 15:25:56;;;;;;;5.65;4.75;;;;;;;29.28;63.25;94924.34;5097868;28;20766;-81
2023/07/11 15:28:31;;;;;;;6.70;4.25;;;;;;;29.22;64.22;94933.47;5094188;28;20500;-85
2023/07/11 15:30:58;;;;;;;5.55;4.45;;;;;;;29.11;66.35;94931.25;5075782;28;20050;-85
2023/07/11 15:33:41;;;;;;;5.03;4.63;;;;;;;29.11;64.60;94931.25;5091350;28;20031;-85
2023/07/11 15:36:08;;;;;;;5.93;4.50;;;;;;;29.04;63.70;94931.59;5086232;28;20474;-84
2023/07/11 15:38:33;;;;;;;5.25;4.50;;;;;;;29.06;65.17;94931.31;5080084;28;20567;-79
2023/07/11 15:41:04;;;;;;;5.30;4.10;;;;;;;29.05;64.30;94937.72;5085089;28;20397;-82
2023/07/11 15:43:32;;;;;;;6.22;4.90;;;;;;;29.00;66.15;94935.91;5082489;28;20036;-82
2023/07/11 15:45:59;;;;;;;6.90;4.43;;;;;;;28.95;64.63;94940.50;5092592;28;20029;-81
2023/07/11 15:48:25;;;;;;;6.07;4.40;;;;;;;29.02;66.14;94932.97;5092637;28;20042;-82
2023/07/11 15:50:51;;;;;;;5.28;4.40;;;;;;;28.93;67.95;94940.00;5091471;28;20035;-81
2023/07/11 15:53:17;;;;;;;7.00;4.65;;;;;;;28.83;68.84;94934.81;5098932;28;20019;-78
2023/07/11 15:55:43;;;;;;;4.72;4.30;;;;;;;28.82;67.29;94936.66;5086065;28;20605;-79
2023/07/11 15:58:21;;;;;;;4.95;4.43;;;;;;;28.78;68.79;94939.09;5079510;28;20036;-77
2023/07/11 16:00:46;;;;;;;;;;;;;;;28.70;69.49;94937.09;5084048;28;20042;-80
2023/07/11 16:03:23;;;;;;;6.47;4.90;;;;;;;28.56;69.97;94930.00;5083213;28;20840;-81
2023/07/11 16:05:50;;;;;;;7.97;4.90;;;;;;;28.60;71.42;94936.38;5082135;28;20024;-79
2023/07/11 16:08:18;;;;;;;7.90;5.47;;;;;;;28.55;71.91;94937.19;5078011;28;20039;-79
2023/07/11 16:10:44;;;;;;;11.75;8.05;;;;;;;28.46;72.13;94938.09;5086984;28;20027;-80
2023/07/11 16:13:18;;;;;;;7.15;4.85;;;;;;;28.26;74.39;94937.22;5092415;28;20024;-78
2023/07/11 16:15:44;;;;;;;10.18;5.55;;;;;;;28.20;73.13;94933.03;5083257;28;20111;-80
2023/07/11 16:18:15;;;;;;;10.52;6.50;;;;;;;28.15;74.52;94940.28;5077642;28;20457;-80
2023/07/11 16:20:41;;;;;;;6.03;5.43;;;;;;;28.04;73.79;94941.41;5097782;28;20400;-80
2023/07/11 16:23:14;;;;;;;6.32;4.63;;;;;;;27.95;75.04;94935.09;5093365;28;20093;-81
2023/07/11 16:25:41;;;;;;;10.27;7.03;;;;;;;27.87;75.17;94936.47;5085618;28;20032;-79